Time;durP1;ratioP1;P1;durP2;ratioP2;P2;SDS_P1;SDS_P2;PMS_P1;PMS_P2;Temp;Humidity;BMP_temperature;BMP_pressure;BME280_temperature;BME280_humidity;BME280_pressure;Samples;Min_cycle;Max_cycle;Signal;HPM_P1;HPM_P2
2023/07/20 00:02:17;;;;;;;3.73;3.53;;;16.60;99.90;;;;;;5211283;28;20179;-44
2023/07/20 00:04:48;;;;;;;3.63;3.50;;;16.60;99.90;;;;;;5210108;28;20187;-45
2023/07/20 00:07:18;;;;;;;3.50;3.30;;;16.60;99.90;;;;;;5209316;28;20199;-45
2023/07/20 00:09:49;;;;;;;6.40;3.23;;;16.60;99.90;;;;;;5212429;28;20217;-45
2023/07/20 00:12:20;;;;;;;3.37;3.17;;;16.60;99.90;;;;;;5208973;28;20195;-45
2023/07/20 00:14:53;;;;;;;4.90;3.40;;;16.60;99.90;;;;;;5222449;28;20195;-45
2023/07/20 00:17:23;;;;;;;3.73;3.40;;;16.60;99.90;;;;;;5238627;28;20323;-45
2023/07/20 00:19:54;;;;;;;3.20;2.90;;;16.50;99.90;;;;;;5206733;28;20589;-47
2023/07/20 00:22:25;;;;;;;3.87;3.67;;;16.50;99.90;;;;;;5207493;28;20180;-45
2023/07/20 00:24:55;;;;;;;9.73;3.67;;;16.50;99.90;;;;;;5205629;28;20191;-45
2023/07/20 00:27:26;;;;;;;9.13;4.27;;;16.40;99.90;;;;;;5204553;28;20180;-45
2023/07/20 00:29:56;;;;;;;3.23;3.03;;;16.40;99.90;;;;;;5209234;28;20195;-46
2023/07/20 00:32:27;;;;;;;3.67;3.37;;;16.50;99.90;;;;;;5203632;28;20275;-45
2023/07/20 00:34:58;;;;;;;3.67;3.37;;;16.50;99.90;;;;;;5203619;28;20237;-46
2023/07/20 00:37:29;;;;;;;3.90;3.70;;;16.50;99.90;;;;;;5211364;28;20191;-47
2023/07/20 00:39:59;;;;;;;4.17;3.97;;;16.40;99.90;;;;;;5215094;28;20226;-45
2023/07/20 00:42:30;;;;;;;5.07;3.40;;;16.40;99.90;;;;;;5208675;28;20191;-45
2023/07/20 00:45:01;;;;;;;4.97;4.30;;;16.40;99.90;;;;;;5193128;28;20207;-46
2023/07/20 00:47:36;;;;;;;4.37;4.07;;;16.30;99.90;;;;;;5244212;28;20445;-46
2023/07/20 00:50:07;;;;;;;3.03;2.93;;;16.30;99.90;;;;;;5206703;28;20437;-47
2023/07/20 00:52:41;;;;;;;4.10;3.73;;;16.20;99.90;;;;;;5203213;28;20453;-47
2023/07/20 00:55:11;;;;;;;4.40;3.27;;;16.10;99.90;;;;;;5205831;28;20471;-46
2023/07/20 00:57:42;;;;;;;3.43;3.23;;;16.10;99.90;;;;;;5213188;28;20812;-46
2023/07/20 01:00:14;;;;;;;5.30;3.03;;;16.10;99.90;;;;;;5207115;28;20215;-46
2023/07/20 01:02:45;;;;;;;4.30;4.00;;;16.10;99.90;;;;;;5203884;28;20188;-46
2023/07/20 01:05:16;;;;;;;4.10;3.80;;;16.20;99.90;;;;;;5205518;28;20954;-45
2023/07/20 01:07:49;;;;;;;9.43;3.90;;;16.10;99.90;;;;;;5202815;28;20505;-46
2023/07/20 01:10:48;;;;;;;4.20;3.80;;;16.10;99.90;;;;;;5198067;28;21057;-46
2023/07/20 01:13:19;;;;;;;5.40;4.27;;;16.20;99.90;;;;;;5204716;28;20477;-46
2023/07/20 01:15:53;;;;;;;5.10;4.53;;;16.20;99.90;;;;;;5208979;28;20474;-46
2023/07/20 01:18:23;;;;;;;5.43;3.77;;;16.20;99.90;;;;;;5208401;28;20945;-46
2023/07/20 01:20:59;;;;;;;4.83;4.57;;;16.20;99.90;;;;;;5209741;28;20517;-45
2023/07/20 01:23:46;;;;;;;4.07;3.87;;;16.30;99.90;;;;;;5209640;28;20190;-47
2023/07/20 01:27:01;;;;;;;3.07;2.93;;;16.40;99.90;;;;;;5207374;28;20964;-45
2023/07/20 01:29:53;;;;;;;6.00;4.23;;;16.50;99.90;;;;;;5215299;28;20471;-45
2023/07/20 01:32:25;;;;;;;4.07;3.80;;;16.60;99.90;;;;;;5210048;28;20437;-46
2023/07/20 01:34:58;;;;;;;4.67;3.70;;;16.60;99.90;;;;;;5217988;28;20453;-46
2023/07/20 01:37:32;;;;;;;4.50;4.13;;;16.60;99.90;;;;;;5216598;28;20442;-45
2023/07/20 01:40:03;;;;;;;4.83;4.10;;;16.60;99.90;;;;;;5213438;28;20469;-46
2023/07/20 01:42:34;;;;;;;3.33;3.23;;;16.60;99.90;;;;;;5215021;28;20430;-45
2023/07/20 01:45:05;;;;;;;4.37;3.97;;;16.60;99.90;;;;;;5208088;28;20510;-44
2023/07/20 01:47:36;;;;;;;4.17;3.87;;;16.50;99.90;;;;;;5218528;28;20644;-47
2023/07/20 01:50:07;;;;;;;4.30;3.90;;;16.50;99.90;;;;;;5208618;28;20529;-46
2023/07/20 01:52:38;;;;;;;4.33;3.40;;;16.50;99.90;;;;;;5210586;28;20186;-45
2023/07/20 01:55:09;;;;;;;5.37;4.33;;;16.50;99.90;;;;;;5209302;28;20477;-46
2023/07/20 01:57:39;;;;;;;4.87;4.47;;;16.60;99.90;;;;;;5211904;28;20186;-47
2023/07/20 02:00:12;;;;;;;4.37;3.97;;;16.50;99.90;;;;;;5204446;28;20203;-45
2023/07/20 02:02:43;;;;;;;4.10;3.80;;;16.50;99.90;;;;;;5205825;28;20225;-46
2023/07/20 02:05:13;;;;;;;4.10;3.80;;;16.50;99.90;;;;;;5212631;28;20926;-45
2023/07/20 02:07:44;;;;;;;3.63;3.43;;;16.50;99.90;;;;;;5212145;28;20452;-45
2023/07/20 02:10:14;;;;;;;3.70;3.40;;;16.50;99.90;;;;;;5210137;28;20199;-47
2023/07/20 02:12:45;;;;;;;5.13;4.60;;;16.50;99.90;;;;;;5210280;28;20191;-44
2023/07/20 02:15:17;;;;;;;5.20;4.17;;;16.40;99.90;;;;;;5207981;28;20297;-45
2023/07/20 02:17:47;;;;;;;8.80;4.80;;;16.40;99.90;;;;;;5208990;28;20187;-47
2023/07/20 02:20:20;;;;;;;6.70;4.50;;;16.40;99.90;;;;;;5206964;28;21005;-46
2023/07/20 02:22:51;;;;;;;6.50;4.13;;;16.40;99.90;;;;;;5208820;28;20271;-45
2023/07/20 02:25:21;;;;;;;4.60;4.20;;;16.40;99.90;;;;;;5208694;28;20988;-45
2023/07/20 02:27:52;;;;;;;3.87;3.67;;;16.40;99.90;;;;;;5207717;28;20206;-45
2023/07/20 02:30:23;;;;;;;5.20;4.80;;;16.30;99.90;;;;;;5204850;28;20195;-45
2023/07/20 02:32:54;;;;;;;5.13;4.80;;;16.30;99.90;;;;;;5204342;28;20187;-46
2023/07/20 02:35:24;;;;;;;6.57;5.90;;;16.30;99.90;;;;;;5205320;28;20204;-45
2023/07/20 02:37:55;;;;;;;6.97;5.90;;;16.30;99.90;;;;;;5207947;28;20196;-46
2023/07/20 02:40:25;;;;;;;6.40;5.80;;;16.30;99.90;;;;;;5206068;28;20184;-45
2023/07/20 02:42:56;;;;;;;6.17;5.50;;;16.30;99.90;;;;;;5205762;28;20188;-46
2023/07/20 02:45:27;;;;;;;6.53;6.03;;;16.20;99.90;;;;;;5208145;28;20262;-46
2023/07/20 02:47:57;;;;;;;7.70;6.90;;;16.30;99.90;;;;;;5203753;28;20210;-46
2023/07/20 02:50:28;;;;;;;6.67;6.17;;;16.40;99.90;;;;;;5203452;28;20195;-45
2023/07/20 02:52:58;;;;;;;8.90;8.00;;;16.40;99.90;;;;;;5207892;28;20237;-45
2023/07/20 02:55:29;;;;;;;17.83;9.13;;;16.30;99.90;;;;;;5205249;28;20234;-45
2023/07/20 02:57:59;;;;;;;8.20;7.50;;;16.20;99.90;;;;;;5202018;28;20203;-44
2023/07/20 03:00:30;;;;;;;8.93;7.50;;;16.10;99.90;;;;;;5210805;28;20187;-45
2023/07/20 03:03:01;;;;;;;8.00;7.30;;;16.10;99.90;;;;;;5197381;28;20203;-45
2023/07/20 03:05:31;;;;;;;11.57;8.10;;;16.00;99.90;;;;;;5207562;28;20186;-47
2023/07/20 03:08:03;;;;;;;10.80;8.27;;;16.00;99.90;;;;;;5205390;28;20295;-46
2023/07/20 03:10:39;;;;;;;10.70;8.80;;;16.00;99.90;;;;;;5205794;28;20188;-46
2023/07/20 03:13:10;;;;;;;8.63;7.73;;;16.00;99.90;;;;;;5213192;28;20845;-46
2023/07/20 03:15:40;;;;;;;8.10;7.13;;;16.00;99.90;;;;;;5204498;28;20458;-45
2023/07/20 03:18:11;;;;;;;10.50;8.00;;;16.00;99.90;;;;;;5205937;28;20199;-46
2023/07/20 03:20:41;;;;;;;9.53;7.87;;;16.10;99.90;;;;;;5200070;28;20215;-45
2023/07/20 03:23:12;;;;;;;11.30;8.00;;;16.10;99.90;;;;;;5216403;28;22174;-47
2023/07/20 03:25:43;;;;;;;14.33;7.17;;;16.20;99.90;;;;;;5208949;28;20184;-46
2023/07/20 03:28:13;;;;;;;8.27;7.33;;;16.20;99.90;;;;;;5207169;28;20277;-47
2023/07/20 03:30:44;;;;;;;8.30;7.53;;;16.20;99.90;;;;;;5213467;28;20191;-46
2023/07/20 03:33:15;;;;;;;11.57;8.87;;;16.20;99.90;;;;;;5206519;28;20195;-45
2023/07/20 03:35:46;;;;;;;10.80;7.83;;;16.20;99.90;;;;;;5203255;28;20749;-45
2023/07/20 03:38:16;;;;;;;9.13;8.23;;;16.20;99.90;;;;;;5204406;28;20211;-45
2023/07/20 03:40:51;;;;;;;9.53;8.43;;;16.30;99.90;;;;;;5209182;28;20184;-44
2023/07/20 03:43:23;;;;;;;9.90;8.40;;;16.20;99.90;;;;;;5209440;28;20171;-45
2023/07/20 03:45:54;;;;;;;11.37;8.53;;;16.10;99.90;;;;;;5205017;28;20494;-45
2023/07/20 03:48:25;;;;;;;10.57;9.23;;;16.10;99.90;;;;;;5207553;28;20537;-45
2023/07/20 03:50:56;;;;;;;6.73;6.00;;;16.10;99.90;;;;;;5204291;28;20443;-46
2023/07/20 03:53:27;;;;;;;8.53;7.73;;;16.10;99.90;;;;;;5206963;28;20469;-45
2023/07/20 03:55:57;;;;;;;15.07;8.20;;;16.10;99.90;;;;;;5199855;28;20219;-45
2023/07/20 03:58:29;;;;;;;8.23;7.53;;;16.00;99.90;;;;;;5205732;28;20215;-45
2023/07/20 04:01:00;;;;;;;8.20;7.50;;;16.00;99.90;;;;;;5209909;28;20670;-45
2023/07/20 04:03:30;;;;;;;10.43;8.97;;;16.00;99.90;;;;;;5206039;28;20435;-45
2023/07/20 04:06:01;;;;;;;9.47;7.20;;;16.10;99.90;;;;;;5203585;28;20187;-44
2023/07/20 04:08:32;;;;;;;10.33;8.60;;;16.10;99.90;;;;;;5207100;28;20698;-47
2023/07/20 04:11:02;;;;;;;12.47;9.47;;;16.20;99.90;;;;;;5206685;28;20187;-46
2023/07/20 04:13:34;;;;;;;8.53;7.70;;;16.20;99.90;;;;;;5207116;28;20198;-45
2023/07/20 04:16:05;;;;;;;10.07;8.70;;;16.20;99.90;;;;;;5206296;28;20254;-46
2023/07/20 04:18:35;;;;;;;14.30;9.93;;;16.30;99.90;;;;;;5203502;28;20454;-45
2023/07/20 04:21:08;;;;;;;8.93;8.03;;;16.30;99.90;;;;;;5201457;28;20180;-47
2023/07/20 04:23:38;;;;;;;12.50;7.83;;;16.40;99.90;;;;;;5203912;28;20206;-46
2023/07/20 04:26:09;;;;;;;8.80;7.90;;;16.40;99.90;;;;;;5202341;28;20446;-46
2023/07/20 04:28:42;;;;;;;11.40;7.60;;;16.50;99.90;;;;;;5196582;28;20204;-45
2023/07/20 04:31:14;;;;;;;8.90;8.10;;;16.50;99.90;;;;;;5188813;28;20284;-45
2023/07/20 04:33:44;;;;;;;11.67;7.33;;;16.50;99.90;;;;;;5196847;28;20437;-46
2023/07/20 04:36:19;;;;;;;6.70;6.10;;;16.50;99.90;;;;;;5203494;28;20842;-45
2023/07/20 04:38:49;;;;;;;7.10;6.47;;;16.50;99.90;;;;;;5209375;28;20281;-46
2023/07/20 04:41:20;;;;;;;8.60;7.73;;;16.60;99.90;;;;;;5203450;28;20533;-45
2023/07/20 04:43:51;;;;;;;9.83;7.83;;;16.60;99.90;;;;;;5205485;28;20552;-45
2023/07/20 04:46:21;;;;;;;7.43;6.80;;;16.60;99.90;;;;;;5202765;28;20438;-45
2023/07/20 04:48:52;;;;;;;8.70;7.80;;;16.60;99.90;;;;;;5202677;28;20204;-45
2023/07/20 04:51:23;;;;;;;9.43;8.50;;;16.70;99.90;;;;;;5203323;28;20207;-45
2023/07/20 04:53:54;;;;;;;11.80;7.37;;;16.70;99.90;;;;;;5204365;28;20193;-45
2023/07/20 04:56:25;;;;;;;7.90;6.83;;;16.70;99.90;;;;;;5206931;28;20458;-47
2023/07/20 04:58:55;;;;;;;7.43;6.73;;;16.70;99.90;;;;;;5239789;22;20229;-42
2023/07/20 05:01:28;;;;;;;7.13;6.43;;;16.70;99.90;;;;;;5244968;28;20580;-42
2023/07/20 05:03:59;;;;;;;8.67;7.10;;;16.80;99.90;;;;;;5256795;28;20249;-43
2023/07/20 05:06:30;;;;;;;7.70;6.50;;;16.90;99.90;;;;;;5251184;28;20470;-42
2023/07/20 05:09:00;;;;;;;6.67;6.07;;;16.90;99.90;;;;;;5233764;28;20932;-47
2023/07/20 05:11:31;;;;;;;6.07;5.50;;;16.90;99.90;;;;;;5242625;28;20190;-43
2023/07/20 05:14:01;;;;;;;5.13;4.73;;;17.20;99.90;;;;;;5238642;28;20562;-42
2023/07/20 05:16:32;;;;;;;5.83;5.13;;;17.40;99.90;;;;;;5235062;28;20211;-42
2023/07/20 05:19:03;;;;;;;6.07;5.47;;;17.60;99.90;;;;;;5240721;28;20206;-42
2023/07/20 05:21:33;;;;;;;6.23;5.10;;;17.60;99.90;;;;;;5222399;28;20182;-42
2023/07/20 05:24:04;;;;;;;5.83;4.27;;;17.80;99.90;;;;;;5241081;28;20568;-42
2023/07/20 05:26:35;;;;;;;7.07;5.30;;;18.00;99.90;;;;;;5230221;28;20218;-42
2023/07/20 05:29:05;;;;;;;5.00;4.50;;;18.10;99.90;;;;;;5241234;28;20489;-42
2023/07/20 05:31:36;;;;;;;5.93;4.10;;;18.10;99.90;;;;;;5227878;28;20247;-41
2023/07/20 05:34:07;;;;;;;4.70;4.30;;;18.10;99.90;;;;;;5227846;28;20186;-42
2023/07/20 05:36:37;;;;;;;5.40;4.90;;;18.20;99.90;;;;;;5219543;28;20206;-42
2023/07/20 05:39:08;;;;;;;5.60;5.20;;;18.40;99.90;;;;;;5220764;28;20201;-42
2023/07/20 05:41:39;;;;;;;6.17;5.63;;;18.50;99.90;;;;;;5247540;28;20232;-43
2023/07/20 05:44:09;;;;;;;7.00;6.40;;;18.80;99.90;;;;;;5242200;28;20186;-43
2023/07/20 05:46:40;;;;;;;4.43;4.23;;;20.30;99.90;;;;;;5236852;28;20179;-41
2023/07/20 05:49:11;;;;;;;10.30;5.60;;;21.40;99.90;;;;;;5211965;28;20287;-42
2023/07/20 05:51:41;;;;;;;7.73;5.33;;;22.20;99.90;;;;;;5221766;28;20328;-41
2023/07/20 05:54:12;;;;;;;20.47;5.33;;;22.20;99.90;;;;;;5239557;28;20197;-41
2023/07/20 05:56:43;;;;;;;4.93;4.60;;;22.00;99.90;;;;;;5241149;28;20539;-42
2023/07/20 05:59:13;;;;;;;4.43;4.13;;;21.60;99.90;;;;;;5215506;28;20217;-42
2023/07/20 06:01:44;;;;;;;5.17;4.67;;;21.30;99.90;;;;;;5238259;28;20171;-43
2023/07/20 06:04:15;;;;;;;4.43;4.10;;;21.40;99.90;;;;;;5242781;28;20186;-42
2023/07/20 06:06:46;;;;;;;4.70;3.97;;;21.30;99.90;;;;;;5240931;28;20182;-42
2023/07/20 06:09:17;;;;;;;4.70;4.40;;;21.40;99.90;;;;;;5234820;28;20210;-42
2023/07/20 06:11:47;;;;;;;7.83;4.90;;;21.50;99.90;;;;;;5230299;28;20435;-42
2023/07/20 06:14:18;;;;;;;4.70;4.20;;;21.00;99.90;;;;;;5236860;28;20323;-42
2023/07/20 06:16:49;;;;;;;6.03;4.70;;;20.50;99.90;;;;;;5221645;28;20198;-42
2023/07/20 06:19:19;;;;;;;4.20;3.97;;;20.00;99.90;;;;;;5223611;28;20671;-42
2023/07/20 06:21:50;;;;;;;4.53;4.23;;;19.70;99.90;;;;;;5219497;28;20186;-43
2023/07/20 06:24:21;;;;;;;4.23;4.03;;;19.50;99.90;;;;;;5236164;28;20197;-41
2023/07/20 06:26:51;;;;;;;5.00;4.60;;;19.50;99.90;;;;;;5234981;28;20191;-42
2023/07/20 06:29:22;;;;;;;4.23;3.90;;;19.80;99.90;;;;;;5237579;28;20824;-43
2023/07/20 06:31:53;;;;;;;3.67;3.37;;;20.10;99.90;;;;;;5237353;28;20198;-44
2023/07/20 06:34:23;;;;;;;3.40;3.23;;;20.30;99.90;;;;;;5232975;28;20186;-44
2023/07/20 06:36:54;;;;;;;3.37;3.20;;;20.30;99.90;;;;;;5222967;28;20539;-43
2023/07/20 06:39:24;;;;;;;3.87;3.63;;;20.40;99.90;;;;;;5239754;28;20243;-43
2023/07/20 06:41:55;;;;;;;3.43;3.17;;;20.30;99.90;;;;;;5242971;28;20316;-43
2023/07/20 06:44:26;;;;;;;3.13;2.80;;;20.00;99.90;;;;;;5218947;28;20696;-43
2023/07/20 06:46:56;;;;;;;3.20;2.97;;;19.70;99.90;;;;;;5228864;28;20174;-42
2023/07/20 06:49:28;;;;;;;3.10;2.93;;;19.40;99.90;;;;;;5227320;28;20255;-42
2023/07/20 06:51:58;;;;;;;3.33;3.20;;;19.60;99.90;;;;;;5192731;28;20191;-43
2023/07/20 06:54:29;;;;;;;3.13;2.60;;;19.30;99.90;;;;;;5234436;28;20528;-44
2023/07/20 06:56:59;;;;;;;2.50;2.40;;;19.00;99.90;;;;;;5219634;28;20212;-44
2023/07/20 06:59:30;;;;;;;2.57;2.47;;;18.90;99.90;;;;;;5243850;28;20213;-42
2023/07/20 07:02:01;;;;;;;2.37;2.17;;;20.80;99.90;;;;;;5239900;28;20188;-44
2023/07/20 07:04:33;;;;;;;1.67;1.67;;;24.50;99.90;;;;;;5227202;28;20179;-43
2023/07/20 07:07:04;;;;;;;4.40;1.30;;;27.80;79.50;;;;;;5227020;28;20197;-43
2023/07/20 07:09:35;;;;;;;2.73;1.73;;;29.70;58.30;;;;;;5215770;28;20964;-44
2023/07/20 07:12:06;;;;;;;2.77;1.80;;;29.80;52.20;;;;;;5222179;28;20182;-44
2023/07/20 07:14:37;;;;;;;1.73;1.50;;;29.50;51.00;;;;;;5240788;28;20182;-44
2023/07/20 07:17:08;;;;;;;1.53;1.43;;;30.60;49.10;;;;;;5215546;28;20517;-43
2023/07/20 07:19:40;;;;;;;1.30;1.30;;;31.10;47.10;;;;;;5236565;28;20195;-42
2023/07/20 07:22:11;;;;;;;3.60;1.17;;;30.30;46.20;;;;;;5235529;28;20532;-43
2023/07/20 07:24:42;;;;;;;1.30;0.97;;;29.80;46.40;;;;;;5242170;28;20811;-43
2023/07/20 07:27:12;;;;;;;2.50;1.33;;;29.50;46.40;;;;;;5224355;28;20433;-43
2023/07/20 07:29:44;;;;;;;1.67;1.30;;;28.20;49.00;;;;;;5233064;28;20202;-44
2023/07/20 07:32:15;;;;;;;0.90;0.90;;;29.70;48.70;;;;;;5221235;28;20201;-43
2023/07/20 07:34:47;;;;;;;5.03;0.97;;;32.00;44.50;;;;;;5219565;28;20442;-44
2023/07/20 07:37:19;;;;;;;0.83;0.83;;;32.50;41.90;;;;;;5232231;28;20209;-43
2023/07/20 07:39:50;;;;;;;1.00;1.00;;;31.60;42.80;;;;;;5233643;28;20543;-44
2023/07/20 07:42:20;;;;;;;1.63;0.97;;;29.90;44.80;;;;;;5232321;28;20445;-42
2023/07/20 07:44:51;;;;;;;0.73;0.73;;;27.60;46.70;;;;;;5217997;28;20198;-42
2023/07/20 07:47:22;;;;;;;0.87;0.87;;;27.10;49.50;;;;;;5240502;28;20191;-42
2023/07/20 07:49:52;;;;;;;0.80;0.80;;;26.80;49.10;;;;;;5237333;28;20270;-42
2023/07/20 07:52:23;;;;;;;0.87;0.70;;;28.30;48.80;;;;;;5226282;28;20212;-44
2023/07/20 07:54:53;;;;;;;0.70;0.70;;;30.70;43.40;;;;;;5237550;28;20201;-43
2023/07/20 07:57:24;;;;;;;1.63;1.57;;;31.80;39.90;;;;;;5222405;28;20206;-42
2023/07/20 07:59:55;;;;;;;1.33;1.10;;;31.00;41.30;;;;;;5223588;28;20282;-43
2023/07/20 08:02:26;;;;;;;0.90;0.90;;;30.00;42.50;;;;;;5237459;28;20330;-43
2023/07/20 08:04:56;;;;;;;1.17;1.17;;;29.80;43.20;;;;;;5218936;28;20182;-42
2023/07/20 08:07:27;;;;;;;1.10;1.00;;;29.90;42.90;;;;;;5240649;28;20209;-43
2023/07/20 08:09:57;;;;;;;0.80;0.80;;;29.20;43.00;;;;;;5232736;28;20284;-42
2023/07/20 08:12:28;;;;;;;1.70;1.10;;;27.70;45.60;;;;;;5237440;28;20177;-43
2023/07/20 08:14:59;;;;;;;0.93;0.93;;;27.00;47.80;;;;;;5238136;28;20202;-44
2023/07/20 08:17:29;;;;;;;0.80;0.80;;;26.30;49.00;;;;;;5235101;28;20201;-43
2023/07/20 08:20:00;;;;;;;3.23;1.03;;;25.40;50.40;;;;;;5223512;28;20873;-44
2023/07/20 08:22:31;;;;;;;0.90;0.90;;;24.90;51.80;;;;;;5243071;28;20178;-44
2023/07/20 08:25:01;;;;;;;0.67;0.67;;;24.40;53.10;;;;;;5208129;28;20247;-43
2023/07/20 08:27:32;;;;;;;1.33;0.83;;;23.70;54.10;;;;;;5247201;28;20182;-42
2023/07/20 08:30:04;;;;;;;0.73;0.60;;;23.20;54.70;;;;;;5224683;28;20668;-44
2023/07/20 08:32:35;;;;;;;4.00;1.00;;;23.80;55.30;;;;;;5226552;28;20570;-43
2023/07/20 08:35:06;;;;;;;1.90;1.00;;;24.80;53.60;;;;;;5239298;28;20429;-44
2023/07/20 08:37:36;;;;;;;0.83;0.83;;;25.80;52.40;;;;;;5225640;28;20521;-43
2023/07/20 08:40:08;;;;;;;0.60;0.60;;;25.30;51.40;;;;;;5226321;28;20467;-43
2023/07/20 08:42:39;;;;;;;1.33;0.70;;;24.50;53.10;;;;;;5243585;28;20332;-44
2023/07/20 08:45:13;;;;;;;0.57;0.57;;;24.70;52.70;;;;;;5236243;28;20437;-44
2023/07/20 08:47:47;;;;;;;1.47;0.70;;;25.00;51.20;;;;;;5243420;28;20597;-43
2023/07/20 08:50:18;;;;;;;0.60;0.50;;;25.30;51.30;;;;;;5220337;28;20479;-44
2023/07/20 08:52:52;;;;;;;1.10;1.10;;;25.20;50.70;;;;;;5232449;28;20999;-44
2023/07/20 08:55:23;;;;;;;0.57;0.40;;;26.00;50.40;;;;;;5244387;28;20449;-44
2023/07/20 08:57:58;;;;;;;0.60;0.50;;;26.20;49.20;;;;;;5239898;28;20479;-43
2023/07/20 09:00:29;;;;;;;0.70;0.37;;;26.00;48.70;;;;;;5235057;28;20940;-43
2023/07/20 09:03:02;;;;;;;0.50;0.50;;;25.40;49.80;;;;;;5239900;28;20429;-44
2023/07/20 09:05:35;;;;;;;1.23;0.60;;;25.40;50.40;;;;;;5238562;28;20178;-44
2023/07/20 09:08:05;;;;;;;1.13;0.60;;;24.50;49.60;;;;;;5240047;28;20520;-44
2023/07/20 09:10:36;;;;;;;1.10;1.10;;;24.20;50.40;;;;;;5240292;28;20982;-43
2023/07/20 09:13:06;;;;;;;0.70;0.70;;;24.40;51.60;;;;;;5233552;28;20190;-43
2023/07/20 09:15:37;;;;;;;0.80;0.60;;;24.70;51.00;;;;;;5244102;28;20228;-43
2023/07/20 09:18:08;;;;;;;0.30;0.30;;;24.50;51.00;;;;;;5226386;28;20228;-43
2023/07/20 09:20:39;;;;;;;3.10;0.53;;;24.30;50.60;;;;;;5236662;28;20179;-43
2023/07/20 09:23:09;;;;;;;0.60;0.60;;;24.50;51.50;;;;;;5239798;28;20586;-43
2023/07/20 09:25:40;;;;;;;1.13;0.40;;;24.80;51.50;;;;;;5208450;28;20183;-44
2023/07/20 09:28:11;;;;;;;0.60;0.50;;;25.00;51.30;;;;;;5231358;28;20209;-44
2023/07/20 09:30:42;;;;;;;0.93;0.70;;;24.90;50.90;;;;;;5236017;28;20425;-45
2023/07/20 09:33:22;;;;;;;0.93;0.60;;;24.60;51.00;;;;;;5245461;28;20178;-43
2023/07/20 09:35:53;;;;;;;3.23;3.07;;;23.80;52.50;;;;;;5246905;28;20203;-42
2023/07/20 09:38:26;;;;;;;4.77;0.90;;;23.70;53.50;;;;;;5226648;28;20514;-43
2023/07/20 09:40:57;;;;;;;2.77;1.50;;;23.40;52.10;;;;;;5225576;28;20186;-43
2023/07/20 09:43:30;;;;;;;2.30;2.17;;;23.10;52.60;;;;;;5246190;28;20439;-43
2023/07/20 09:46:01;;;;;;;1.67;1.63;;;22.80;54.10;;;;;;5237949;28;20190;-44
2023/07/20 09:48:31;;;;;;;22.37;9.60;;;22.50;54.50;;;;;;5238158;28;20464;-44
2023/07/20 09:51:06;;;;;;;1.30;1.30;;;22.00;55.30;;;;;;5240075;28;20499;-48
2023/07/20 09:53:37;;;;;;;0.50;0.50;;;21.40;56.60;;;;;;5218159;28;20178;-43
2023/07/20 09:56:11;;;;;;;2.10;0.93;;;20.80;58.50;;;;;;5227602;28;20521;-44
2023/07/20 09:58:42;;;;;;;0.50;0.50;;;20.60;60.00;;;;;;5219411;28;20465;-44
2023/07/20 10:01:16;;;;;;;1.87;0.70;;;20.30;61.00;;;;;;5221334;28;20815;-42
2023/07/20 10:03:50;;;;;;;1.80;0.93;;;20.20;62.20;;;;;;5225509;28;20497;-42
2023/07/20 10:06:24;;;;;;;10.60;6.40;;;20.20;63.00;;;;;;5236507;28;20441;-44
2023/07/20 10:09:00;;;;;;;2.07;1.40;;;20.30;63.50;;;;;;5236347;28;20449;-43
2023/07/20 10:11:35;;;;;;;0.77;0.77;;;20.30;64.40;;;;;;5225927;28;20436;-42
2023/07/20 10:14:08;;;;;;;1.83;1.10;;;20.40;65.00;;;;;;5239830;28;20428;-43
2023/07/20 10:16:52;;;;;;;0.83;0.83;;;20.40;65.30;;;;;;5218004;28;20463;-44
2023/07/20 10:19:25;;;;;;;0.57;0.50;;;20.40;65.90;;;;;;5237683;28;20464;-44
2023/07/20 10:22:07;;;;;;;0.67;0.67;;;20.30;66.70;;;;;;5234350;28;20904;-43
2023/07/20 10:24:39;;;;;;;1.00;1.00;;;20.80;66.10;;;;;;5238767;28;20443;-43
2023/07/20 10:27:10;;;;;;;0.50;0.50;;;20.90;64.50;;;;;;5226459;28;20443;-44
2023/07/20 10:29:41;;;;;;;0.60;0.60;;;21.20;63.80;;;;;;5240239;28;20465;-45
2023/07/20 10:32:13;;;;;;;11.27;5.97;;;21.60;62.50;;;;;;5230093;28;20650;-43
2023/07/20 10:34:51;;;;;;;2.33;2.17;;;21.90;61.20;;;;;;5223985;28;20440;-43
2023/07/20 10:37:48;;;;;;;2.30;2.20;;;22.10;60.70;;;;;;5235980;28;20465;-45
2023/07/20 10:40:26;;;;;;;5.90;5.30;;;22.20;59.70;;;;;;5238236;28;20578;-43
2023/07/20 10:43:07;;;;;;;9.00;5.80;;;22.50;59.10;;;;;;5235702;28;20436;-43
2023/07/20 10:45:42;;;;;;;5.23;4.20;;;22.50;58.70;;;;;;5242189;28;20438;-44
2023/07/20 10:48:21;;;;;;;3.07;2.80;;;22.60;58.80;;;;;;5226037;28;20437;-43
2023/07/20 10:51:10;;;;;;;6.87;3.47;;;22.70;58.60;;;;;;5235533;28;20447;-43
2023/07/20 10:53:41;;;;;;;5.50;4.87;;;22.70;59.30;;;;;;5232777;28;20494;-42
2023/07/20 10:56:16;;;;;;;25.67;13.10;;;23.10;58.70;;;;;;5220329;28;20467;-41
2023/07/20 10:58:46;;;;;;;10.60;5.63;;;23.50;58.50;;;;;;5229938;22;20504;-46
2023/07/20 11:01:17;;;;;;;4.97;4.17;;;23.70;57.70;;;;;;5246737;28;20529;-46
2023/07/20 11:03:54;;;;;;;6.73;2.27;;;23.60;57.50;;;;;;5262642;28;20618;-47
2023/07/20 11:06:27;;;;;;;2.60;2.40;;;23.80;57.50;;;;;;5260413;28;20560;-46
2023/07/20 11:09:15;;;;;;;4.03;3.73;;;23.60;57.10;;;;;;5257329;28;20921;-47
2023/07/20 11:11:49;;;;;;;1.87;1.50;;;23.60;56.60;;;;;;5246302;28;20430;-47
2023/07/20 11:14:24;;;;;;;2.57;2.23;;;23.50;56.00;;;;;;5247131;28;20487;-48
2023/07/20 11:16:55;;;;;;;3.80;2.40;;;23.60;56.20;;;;;;5224982;28;20874;-46
2023/07/20 11:19:26;;;;;;;7.50;6.50;;;23.60;56.40;;;;;;5234713;28;20566;-47
2023/07/20 11:21:58;;;;;;;13.03;6.60;;;23.20;57.30;;;;;;5244557;28;20227;-47
2023/07/20 11:24:29;;;;;;;1.83;1.73;;;23.10;57.80;;;;;;5220106;28;20456;-46
2023/07/20 11:27:01;;;;;;;1.53;1.53;;;23.10;57.00;;;;;;5240594;28;20432;-48
2023/07/20 11:29:31;;;;;;;3.67;2.53;;;23.10;57.80;;;;;;5216036;28;20206;-49
2023/07/20 11:32:03;;;;;;;13.77;7.60;;;23.30;57.60;;;;;;5235114;28;20437;-46
2023/07/20 11:34:35;;;;;;;3.40;2.20;;;23.50;57.50;;;;;;5245623;28;20194;-45
2023/07/20 11:37:06;;;;;;;7.70;4.90;;;23.70;57.30;;;;;;5250180;28;20816;-47
2023/07/20 11:39:37;;;;;;;12.30;8.33;;;23.60;57.30;;;;;;5239263;28;20453;-48
2023/07/20 11:42:08;;;;;;;6.60;1.53;;;23.50;56.70;;;;;;5223383;28;20441;-46
2023/07/20 11:44:39;;;;;;;5.03;1.87;;;23.70;57.10;;;;;;5234389;28;20472;-51
2023/07/20 11:47:11;;;;;;;0.93;0.90;;;24.00;56.50;;;;;;5241778;28;20437;-46
2023/07/20 11:49:43;;;;;;;9.73;3.73;;;24.40;54.90;;;;;;5239759;28;20195;-46
2023/07/20 11:52:16;;;;;;;11.53;4.17;;;24.30;55.00;;;;;;5247226;28;20440;-46
2023/07/20 11:54:47;;;;;;;0.90;0.90;;;24.40;55.40;;;;;;5242788;28;20436;-45
2023/07/20 11:57:21;;;;;;;0.97;0.97;;;23.80;53.60;;;;;;5209631;28;20469;-46
2023/07/20 12:00:00;;;;;;;0.93;0.93;;;23.70;54.90;;;;;;5239545;28;20845;-47
2023/07/20 12:02:32;;;;;;;3.37;0.70;;;23.50;54.20;;;;;;5233708;28;20433;-48
2023/07/20 12:05:03;;;;;;;0.60;0.60;;;23.40;55.00;;;;;;5231913;28;20460;-46
2023/07/20 12:07:39;;;;;;;1.03;0.80;;;23.30;55.30;;;;;;5223076;28;20455;-48
2023/07/20 12:10:11;;;;;;;1.63;0.83;;;23.00;55.90;;;;;;5256831;28;20443;-47
2023/07/20 12:12:43;;;;;;;3.30;0.93;;;22.30;57.40;;;;;;5228970;28;20441;-47
2023/07/20 12:15:31;;;;;;;0.60;0.60;;;21.70;59.20;;;;;;5216847;28;20450;-46
2023/07/20 12:18:03;;;;;;;0.50;0.50;;;21.10;58.10;;;;;;5217628;28;20436;-46
2023/07/20 12:20:36;;;;;;;0.53;0.53;;;20.80;60.20;;;;;;5238360;28;20448;-47
2023/07/20 12:23:12;;;;;;;2.10;0.60;;;20.50;62.40;;;;;;5230326;28;20437;-46
2023/07/20 12:25:47;;;;;;;4.07;0.90;;;20.30;62.90;;;;;;5236366;28;20433;-46
2023/07/20 12:28:19;;;;;;;1.17;0.60;;;20.30;63.40;;;;;;5230386;28;20455;-45
2023/07/20 12:30:56;;;;;;;0.70;0.70;;;20.60;62.20;;;;;;5224765;28;20443;-46
2023/07/20 12:33:26;;;;;;;1.50;0.60;;;21.00;61.20;;;;;;5225644;28;20439;-47
2023/07/20 12:35:58;;;;;;;0.50;0.40;;;21.50;59.30;;;;;;5233826;28;20518;-46
2023/07/20 12:38:30;;;;;;;0.57;0.57;;;21.50;59.10;;;;;;5223524;28;20197;-45
2023/07/20 12:41:02;;;;;;;0.70;0.70;;;21.60;58.60;;;;;;5243188;28;20416;-46
2023/07/20 12:43:33;;;;;;;0.93;0.73;;;21.50;58.60;;;;;;5222739;28;20461;-46
2023/07/20 12:46:04;;;;;;;6.70;0.90;;;21.50;58.80;;;;;;5243887;28;20428;-47
2023/07/20 12:48:40;;;;;;;0.80;0.80;;;21.50;59.70;;;;;;5227254;28;20175;-46
2023/07/20 12:51:11;;;;;;;1.13;0.87;;;21.80;59.40;;;;;;5229082;28;20444;-46
2023/07/20 12:53:42;;;;;;;0.60;0.60;;;21.80;57.90;;;;;;5246687;28;21003;-47
2023/07/20 12:56:13;;;;;;;0.60;0.60;;;21.70;56.50;;;;;;5246104;28;20463;-46
2023/07/20 12:58:43;;;;;;;1.37;0.53;;;21.50;54.90;;;;;;5241035;28;20215;-45
2023/07/20 13:01:14;;;;;;;0.57;0.40;;;21.30;55.70;;;;;;5240257;28;20214;-48
2023/07/20 13:03:45;;;;;;;1.27;1.07;;;21.20;51.60;;;;;;5217776;28;20174;-47
2023/07/20 13:06:16;;;;;;;0.87;0.87;;;21.30;54.00;;;;;;5221740;28;20186;-48
2023/07/20 13:08:46;;;;;;;1.27;1.07;;;21.30;56.00;;;;;;5247388;28;20453;-52
2023/07/20 13:11:17;;;;;;;0.73;0.73;;;21.40;56.40;;;;;;5248651;28;20186;-47